Time;durP1;ratioP1;P1;durP2;ratioP2;P2;SDS_P1;SDS_P2;PMS_P1;PMS_P2;Temp;Humidity;BMP_temperature;BMP_pressure;BME280_temperature;BME280_humidity;BME280_pressure;Samples;Min_cycle;Max_cycle;Signal;HPM_P1;HPM_P2
2022/07/04 00:00:52;;;;;;;0.70;0.10;;;22.90;99.90;;;;;;4956451;29;20457;-68
2022/07/04 00:03:20;;;;;;;0.70;0.10;;;;;;;;;;4939937;29;20479;-68
2022/07/04 00:05:48;;;;;;;0.70;0.20;;;22.90;99.90;;;;;;4936863;29;20458;-67
2022/07/04 00:08:17;;;;;;;0.70;0.20;;;23.00;99.90;;;;;;4936830;29;20482;-68
2022/07/04 00:10:45;;;;;;;0.70;0.13;;;23.00;99.90;;;;;;4936999;29;20451;-67
2022/07/04 00:13:13;;;;;;;0.70;0.10;;;22.90;99.90;;;;;;4937176;29;20935;-67
2022/07/04 00:15:41;;;;;;;0.70;0.10;;;22.90;99.90;;;;;;4936540;29;20813;-67
2022/07/04 00:18:09;;;;;;;0.70;0.10;;;22.90;99.90;;;;;;4937650;29;20573;-68
2022/07/04 00:20:37;;;;;;;0.70;0.10;;;22.90;99.90;;;;;;4937595;29;20456;-67
2022/07/04 00:23:04;;;;;;;0.70;0.13;;;22.90;99.90;;;;;;4937384;29;20448;-67
2022/07/04 00:25:34;;;;;;;0.70;0.10;;;22.80;99.90;;;;;;4936795;29;20501;-69
2022/07/04 00:28:01;;;;;;;0.70;0.20;;;22.80;99.90;;;;;;4945061;29;20478;-67
2022/07/04 00:30:30;;;;;;;0.70;0.20;;;22.80;99.90;;;;;;4955786;29;20953;-67
2022/07/04 00:32:57;;;;;;;0.70;0.20;;;22.80;99.90;;;;;;4956114;29;20808;-66
2022/07/04 00:35:26;;;;;;;0.70;0.10;;;;;;;;;;4955046;29;20454;-66
2022/07/04 00:37:54;;;;;;;0.70;0.20;;;22.60;99.90;;;;;;4941198;29;20479;-65
2022/07/04 00:40:22;;;;;;;0.70;0.20;;;22.60;99.90;;;;;;4937066;29;20484;-66
2022/07/04 00:42:51;;;;;;;0.70;0.10;;;22.60;99.90;;;;;;4936468;29;20458;-67
2022/07/04 00:45:20;;;;;;;0.70;0.20;;;22.50;99.90;;;;;;4936357;29;20458;-66
2022/07/04 00:47:47;;;;;;;0.70;0.10;;;22.50;99.90;;;;;;4936247;29;20478;-66
2022/07/04 00:50:15;;;;;;;0.70;0.10;;;22.40;99.90;;;;;;4952143;29;20455;-67
2022/07/04 00:52:43;;;;;;;0.70;0.20;;;22.40;99.90;;;;;;4955358;28;20447;-67
2022/07/04 00:55:11;;;;;;;0.70;0.20;;;22.40;99.90;;;;;;4955252;29;20474;-67
2022/07/04 00:57:40;;;;;;;0.70;0.10;;;;;;;;;;4954571;29;20502;-68
2022/07/04 01:00:10;;;;;;;0.70;0.20;;;22.30;99.90;;;;;;4955357;29;20497;-67
2022/07/04 01:02:38;;;;;;;0.90;0.30;;;;;;;;;;4952401;29;20833;-67
2022/07/04 01:05:07;;;;;;;0.83;0.23;;;22.10;99.90;;;;;;4937132;29;20448;-67
2022/07/04 01:07:36;;;;;;;0.70;0.20;;;22.00;99.90;;;;;;4954615;29;20970;-67
2022/07/04 01:10:04;;;;;;;0.70;0.10;;;22.10;99.90;;;;;;4954871;29;20443;-68
2022/07/04 01:12:32;;;;;;;0.70;0.20;;;22.00;99.90;;;;;;4954798;29;20861;-67
2022/07/04 01:15:00;;;;;;;0.70;0.10;;;;;;;;;;4954836;29;20531;-67
2022/07/04 01:17:29;;;;;;;0.70;0.20;;;21.90;99.90;;;;;;4954342;29;20470;-66
2022/07/04 01:19:57;;;;;;;0.70;0.10;;;21.90;99.90;;;;;;4947103;29;20486;-65
2022/07/04 01:22:27;;;;;;;0.70;0.10;;;21.90;99.90;;;;;;4935890;29;20448;-67
2022/07/04 01:24:54;;;;;;;0.70;0.10;;;21.80;99.90;;;;;;4935429;29;20452;-67
2022/07/04 01:27:23;;;;;;;0.70;0.10;;;;;;;;;;4938801;29;20467;-67
2022/07/04 01:29:51;;;;;;;0.70;0.20;;;21.80;99.90;;;;;;4954811;29;20938;-67
2022/07/04 01:32:19;;;;;;;0.70;0.17;;;21.70;99.90;;;;;;4954145;29;20443;-66
2022/07/04 01:34:47;;;;;;;0.70;0.10;;;21.70;99.90;;;;;;4937032;29;20448;-67
2022/07/04 01:37:15;;;;;;;0.70;0.10;;;21.70;99.90;;;;;;4936203;29;20507;-66
2022/07/04 01:39:45;;;;;;;0.70;0.10;;;21.70;99.90;;;;;;4935774;29;20487;-67
2022/07/04 01:42:13;;;;;;;0.70;0.20;;;21.60;99.90;;;;;;4935456;29;20454;-68
2022/07/04 01:44:40;;;;;;;0.70;0.10;;;21.60;99.90;;;;;;4935155;29;20444;-67
2022/07/04 01:47:08;;;;;;;0.70;0.10;;;21.60;99.90;;;;;;4941524;29;20513;-67
2022/07/04 01:49:36;;;;;;;0.70;0.10;;;21.60;99.90;;;;;;4954586;29;20450;-66
2022/07/04 01:52:05;;;;;;;0.70;0.10;;;21.60;99.90;;;;;;4954774;29;20818;-66
2022/07/04 01:54:34;;;;;;;0.70;0.17;;;21.60;99.90;;;;;;4954184;29;20538;-67
2022/07/04 01:57:03;;;;;;;0.70;0.17;;;21.60;99.90;;;;;;4953562;29;20462;-66
2022/07/04 02:02:16;;;;;;;0.70;0.10;;;21.60;99.90;;;;;;4938352;29;20455;-67
2022/07/04 02:04:44;;;;;;;0.70;0.10;;;21.50;99.90;;;;;;4934519;29;20448;-66
2022/07/04 02:07:13;;;;;;;0.70;0.13;;;21.60;99.90;;;;;;4934918;29;20468;-66
2022/07/04 02:09:41;;;;;;;0.70;0.10;;;21.50;99.90;;;;;;4934962;29;20447;-66
2022/07/04 02:14:55;;;;;;;0.70;0.20;;;21.50;99.90;;;;;;4938893;29;20459;-67
2022/07/04 02:17:23;;;;;;;0.70;0.20;;;21.50;99.90;;;;;;4953764;29;20478;-66
2022/07/04 02:19:51;;;;;;;0.70;0.10;;;21.50;99.90;;;;;;4953668;29;20857;-66
2022/07/04 02:22:19;;;;;;;0.70;0.13;;;21.40;99.90;;;;;;4953965;29;20526;-67
2022/07/04 02:24:47;;;;;;;0.70;0.10;;;21.40;99.90;;;;;;4953560;29;20442;-67
2022/07/04 02:27:17;;;;;;;0.70;0.10;;;21.30;99.90;;;;;;4953312;29;20467;-66
2022/07/04 02:29:44;;;;;;;0.70;0.10;;;21.30;99.90;;;;;;4953289;29;20455;-67
2022/07/04 02:32:12;;;;;;;0.70;0.20;;;21.40;99.90;;;;;;4954352;29;20451;-67
2022/07/04 02:34:40;;;;;;;0.70;0.10;;;21.40;99.90;;;;;;4953612;29;20454;-68
2022/07/04 02:37:09;;;;;;;0.70;0.10;;;21.50;99.90;;;;;;4949876;28;20446;-66
2022/07/04 02:39:37;;;;;;;0.70;0.20;;;21.40;99.90;;;;;;4953440;29;20505;-66
2022/07/04 02:42:06;;;;;;;0.70;0.10;;;21.40;99.90;;;;;;4953928;29;20798;-66
2022/07/04 02:44:35;;;;;;;0.70;0.10;;;21.40;99.90;;;;;;4952849;29;20477;-66
2022/07/04 02:47:03;;;;;;;0.70;0.10;;;21.40;99.90;;;;;;4953093;29;20980;-66
2022/07/04 02:49:31;;;;;;;0.70;0.10;;;21.40;99.90;;;;;;4953573;29;20545;-66
2022/07/04 02:51:59;;;;;;;0.70;0.10;;;21.40;99.90;;;;;;4953583;29;20461;-66
2022/07/04 02:54:27;;;;;;;0.70;0.10;;;21.40;99.90;;;;;;4953221;29;20457;-66
2022/07/04 02:56:55;;;;;;;0.70;0.10;;;21.40;99.90;;;;;;4949481;29;20452;-68
2022/07/04 02:59:22;;;;;;;0.70;0.20;;;21.40;99.90;;;;;;4934192;29;20459;-65
2022/07/04 03:01:52;;;;;;;0.70;0.10;;;21.40;99.90;;;;;;4934402;29;20448;-67
2022/07/04 03:04:20;;;;;;;0.70;0.10;;;21.30;99.90;;;;;;4934276;29;20447;-66
2022/07/04 03:06:47;;;;;;;0.70;0.20;;;21.30;99.90;;;;;;4933918;29;20454;-66
2022/07/04 03:09:15;;;;;;;0.70;0.10;;;21.20;99.90;;;;;;4934552;29;20475;-68
2022/07/04 03:11:44;;;;;;;0.70;0.10;;;21.20;99.90;;;;;;4942897;29;20953;-67
2022/07/04 03:14:12;;;;;;;0.70;0.10;;;21.10;99.90;;;;;;4953212;29;20453;-67
2022/07/04 03:16:40;;;;;;;0.70;0.10;;;21.00;99.90;;;;;;4954704;28;20824;-67
2022/07/04 03:19:10;;;;;;;0.70;0.10;;;21.00;99.90;;;;;;4956996;29;20474;-66
2022/07/04 03:21:38;;;;;;;0.70;0.10;;;20.90;99.90;;;;;;4957142;29;20490;-67
2022/07/04 03:24:08;;;;;;;0.70;0.10;;;21.00;99.90;;;;;;4956945;29;21028;-68
2022/07/04 03:26:35;;;;;;;0.70;0.10;;;20.90;99.90;;;;;;4940235;29;20462;-68
2022/07/04 03:29:03;;;;;;;0.70;0.10;;;20.90;99.90;;;;;;4955042;29;20477;-67
2022/07/04 03:31:31;;;;;;;0.70;0.20;;;20.90;99.90;;;;;;4957175;29;20785;-67
2022/07/04 03:33:59;;;;;;;0.70;0.10;;;20.90;99.90;;;;;;4957538;29;20502;-66
2022/07/04 03:36:28;;;;;;;0.70;0.10;;;20.80;99.90;;;;;;4956989;29;20442;-66
2022/07/04 03:38:56;;;;;;;0.70;0.10;;;20.80;99.90;;;;;;4956696;29;20489;-67
2022/07/04 03:41:24;;;;;;;0.70;0.10;;;20.90;99.90;;;;;;4957335;29;20489;-68
2022/07/04 03:43:52;;;;;;;0.67;0.17;;;20.90;99.90;;;;;;4957028;29;20445;-68
2022/07/04 03:46:20;;;;;;;0.70;0.10;;;20.90;99.90;;;;;;4955908;29;20453;-66
2022/07/04 03:48:48;;;;;;;0.70;0.10;;;20.90;99.90;;;;;;4956798;29;20470;-65
2022/07/04 03:51:16;;;;;;;0.70;0.20;;;20.80;99.90;;;;;;4956661;29;20443;-66
2022/07/04 03:53:45;;;;;;;0.70;0.10;;;20.80;99.90;;;;;;4947354;29;20456;-67
2022/07/04 03:56:13;;;;;;;0.70;0.10;;;20.70;99.90;;;;;;4936889;29;20831;-66
2022/07/04 03:58:43;;;;;;;0.70;0.10;;;19.80;99.90;;;;;;4937151;29;20478;-66
2022/07/04 04:01:10;;;;;;;0.70;0.20;;;20.70;99.90;;;;;;4937216;29;20499;-67
2022/07/04 04:06:23;;;;;;;0.70;0.20;;;20.70;99.90;;;;;;4955995;29;20930;-66
2022/07/04 04:08:53;;;;;;;0.67;0.10;;;20.70;99.90;;;;;;4956048;29;20534;-66
2022/07/04 04:11:21;;;;;;;0.70;0.10;;;20.80;99.90;;;;;;4956305;29;20458;-66
2022/07/04 04:13:48;;;;;;;0.70;0.10;;;20.80;99.90;;;;;;4944391;29;20456;-66
2022/07/04 04:16:16;;;;;;;0.70;0.10;;;20.90;99.90;;;;;;4936510;29;20452;-67
2022/07/04 04:18:44;;;;;;;0.70;0.10;;;20.90;99.90;;;;;;4937198;29;20464;-66
2022/07/04 04:21:12;;;;;;;0.70;0.10;;;20.90;99.90;;;;;;4936992;29;20943;-66
2022/07/04 04:23:40;;;;;;;0.70;0.10;;;21.00;99.90;;;;;;4936841;29;20455;-67
2022/07/04 04:26:09;;;;;;;0.70;0.20;;;21.00;99.90;;;;;;4936379;29;20452;-67
2022/07/04 04:28:37;;;;;;;0.70;0.20;;;21.10;99.90;;;;;;4954045;28;20470;-67
2022/07/04 04:31:05;;;;;;;0.70;0.20;;;21.10;99.90;;;;;;4956051;29;20444;-67
2022/07/04 04:33:33;;;;;;;0.60;0.10;;;21.10;99.90;;;;;;4954999;29;20455;-67
2022/07/04 04:36:01;;;;;;;0.70;0.10;;;21.10;99.90;;;;;;4955466;29;20465;-67
2022/07/04 04:38:28;;;;;;;0.70;0.20;;;21.10;99.90;;;;;;4955097;29;20463;-67
2022/07/04 04:40:56;;;;;;;0.70;0.20;;;21.10;99.90;;;;;;4951391;29;20480;-67
2022/07/04 04:43:26;;;;;;;0.70;0.10;;;21.20;99.90;;;;;;4954986;29;20949;-67
2022/07/04 04:45:54;;;;;;;0.70;0.10;;;21.10;99.90;;;;;;4955220;29;20996;-68
2022/07/04 04:48:22;;;;;;;0.70;0.20;;;21.10;99.90;;;;;;4954982;29;20562;-68
2022/07/04 04:50:49;;;;;;;0.70;0.20;;;21.10;99.90;;;;;;4955387;29;20439;-66
2022/07/04 04:53:17;;;;;;;0.70;0.30;;;21.00;99.90;;;;;;4955117;29;20450;-66
2022/07/04 04:55:45;;;;;;;0.70;0.20;;;20.90;99.90;;;;;;4954678;29;20975;-66
2022/07/04 04:58:13;;;;;;;0.67;0.10;;;20.90;99.90;;;;;;4946896;29;20531;-66
2022/07/04 05:00:42;;;;;;;0.70;0.20;;;20.90;99.90;;;;;;4961131;28;20485;-65
2022/07/04 05:03:30;;;;;;;0.70;0.10;;;20.80;99.90;;;;;;4948569;29;20783;-65
2022/07/04 05:05:58;;;;;;;0.67;0.10;;;20.80;99.90;;;;;;4950577;29;20462;-64
2022/07/04 05:08:27;;;;;;;0.70;0.10;;;20.80;99.90;;;;;;4947613;29;21197;-65
2022/07/04 05:10:55;;;;;;;0.70;0.20;;;20.80;99.90;;;;;;4944595;29;20450;-65
2022/07/04 05:13:23;;;;;;;0.70;0.10;;;20.70;99.90;;;;;;4946158;29;20444;-66
2022/07/04 05:15:52;;;;;;;0.70;0.10;;;20.80;99.90;;;;;;4947288;29;20458;-65
2022/07/04 05:18:20;;;;;;;0.70;0.20;;;20.80;99.90;;;;;;4953746;28;20463;-64
2022/07/04 05:20:47;;;;;;;0.70;0.10;;;20.80;99.90;;;;;;4951808;28;20462;-66
2022/07/04 05:23:15;;;;;;;0.60;0.10;;;20.80;99.90;;;;;;4963750;28;20537;-63
2022/07/04 05:25:43;;;;;;;0.70;0.10;;;20.80;99.90;;;;;;4954539;29;20952;-63
2022/07/04 05:28:11;;;;;;;0.70;0.20;;;20.90;99.90;;;;;;4954149;29;20474;-66
2022/07/04 05:30:39;;;;;;;0.70;0.10;;;20.90;99.90;;;;;;4954328;29;20651;-68
2022/07/04 05:33:08;;;;;;;0.70;0.10;;;21.00;99.90;;;;;;4954345;29;20534;-66
2022/07/04 05:35:37;;;;;;;0.60;0.10;;;21.00;99.90;;;;;;4940762;29;20967;-67
2022/07/04 05:38:05;;;;;;;0.60;0.10;;;21.00;99.90;;;;;;4934720;29;20472;-66
2022/07/04 05:40:33;;;;;;;0.70;0.10;;;21.00;99.90;;;;;;4934879;29;20451;-64
2022/07/04 05:43:01;;;;;;;0.70;0.10;;;20.90;99.90;;;;;;4935130;29;20530;-66
2022/07/04 05:45:28;;;;;;;0.60;0.20;;;20.90;99.90;;;;;;4944050;28;20507;-65
2022/07/04 05:47:56;;;;;;;0.70;0.20;;;20.90;99.90;;;;;;4952075;28;20466;-66
2022/07/04 05:50:26;;;;;;;0.70;0.10;;;20.90;99.90;;;;;;4952560;29;20454;-65
2022/07/04 05:52:59;;;;;;;0.70;0.20;;;21.00;99.90;;;;;;4937478;29;20923;-65
2022/07/04 05:55:27;;;;;;;0.70;0.20;;;21.00;99.90;;;;;;4955699;28;20453;-64
2022/07/04 05:57:55;;;;;;;0.70;0.20;;;21.10;99.90;;;;;;4960437;28;20466;-64
2022/07/04 06:00:23;;;;;;;0.70;0.20;;;21.20;99.90;;;;;;4961441;28;20907;-66
2022/07/04 06:02:51;;;;;;;0.70;0.20;;;;;;;;;;4947547;28;20475;-65
2022/07/04 06:05:19;;;;;;;0.70;0.20;;;21.30;99.90;;;;;;4957643;28;20446;-66
2022/07/04 06:07:49;;;;;;;0.70;0.10;;;21.30;99.90;;;;;;4951210;29;20486;-66
2022/07/04 06:10:17;;;;;;;0.70;0.10;;;21.30;99.90;;;;;;4933320;29;20538;-67
2022/07/04 06:12:45;;;;;;;0.70;0.10;;;21.30;99.90;;;;;;4934214;29;20452;-67
2022/07/04 06:15:13;;;;;;;0.70;0.20;;;21.30;99.90;;;;;;4933184;29;20452;-68
2022/07/04 06:17:41;;;;;;;0.70;0.20;;;21.30;99.90;;;;;;4946401;29;20482;-68
2022/07/04 06:20:10;;;;;;;0.70;0.10;;;21.30;99.90;;;;;;4953375;29;20461;-68
2022/07/04 06:22:42;;;;;;;0.70;0.10;;;21.40;99.90;;;;;;4949518;29;20480;-67
2022/07/04 06:25:13;;;;;;;0.70;0.10;;;21.30;99.90;;;;;;4952642;29;20439;-67
2022/07/04 06:27:41;;;;;;;0.70;0.10;;;21.30;99.90;;;;;;4953294;29;20455;-67
2022/07/04 06:30:10;;;;;;;0.70;0.10;;;21.30;99.90;;;;;;4952510;29;20539;-67
2022/07/04 06:32:46;;;;;;;0.70;0.10;;;21.40;99.90;;;;;;4952653;29;20442;-68
2022/07/04 06:38:00;;;;;;;0.70;0.10;;;21.50;99.90;;;;;;4935553;29;20472;-68
2022/07/04 06:40:29;;;;;;;0.70;0.10;;;21.40;99.90;;;;;;4953643;29;20442;-67
2022/07/04 06:42:57;;;;;;;0.70;0.20;;;21.50;99.90;;;;;;4953922;29;20506;-66
2022/07/04 06:45:25;;;;;;;0.70;0.10;;;21.50;99.90;;;;;;4952800;29;20888;-67
2022/07/04 06:47:53;;;;;;;0.70;0.17;;;21.60;99.90;;;;;;4953403;29;20550;-68
2022/07/04 06:50:21;;;;;;;0.70;0.20;;;21.60;99.90;;;;;;4953649;29;21044;-69
2022/07/04 06:53:08;;;;;;;0.70;0.10;;;21.60;99.90;;;;;;4961369;29;20435;-69
2022/07/04 06:55:38;;;;;;;0.70;0.10;;;21.60;99.90;;;;;;4959872;29;20788;-68
2022/07/04 06:58:06;;;;;;;0.70;0.10;;;21.70;99.90;;;;;;4959151;29;20475;-68
2022/07/04 07:00:34;;;;;;;0.70;0.10;;;21.70;99.90;;;;;;4960291;29;20451;-68
2022/07/04 07:03:03;;;;;;;0.70;0.20;;;21.70;99.90;;;;;;4960101;29;20863;-68
2022/07/04 07:05:32;;;;;;;0.70;0.20;;;21.80;99.90;;;;;;4959992;29;20541;-68
2022/07/04 07:08:20;;;;;;;0.70;0.17;;;21.80;99.90;;;;;;4951995;29;20483;-68
2022/07/04 07:10:49;;;;;;;0.70;0.10;;;21.90;99.90;;;;;;4958284;29;20463;-69
2022/07/04 07:13:17;;;;;;;0.70;0.20;;;21.90;99.90;;;;;;4946584;29;20947;-69
2022/07/04 07:15:45;;;;;;;0.70;0.10;;;22.00;99.90;;;;;;4940217;29;20447;-69
2022/07/04 07:18:13;;;;;;;0.70;0.10;;;22.10;99.90;;;;;;4940172;29;20470;-68
2022/07/04 07:20:42;;;;;;;0.70;0.10;;;22.10;99.90;;;;;;4963487;28;20442;-68
2022/07/04 07:23:10;;;;;;;0.70;0.10;;;22.10;99.90;;;;;;4973340;28;21032;-68
2022/07/04 07:25:37;;;;;;;0.70;0.20;;;22.20;99.90;;;;;;4941364;29;20554;-68
2022/07/04 07:28:07;;;;;;;0.70;0.10;;;22.20;99.90;;;;;;4949839;28;20803;-68
2022/07/04 07:30:34;;;;;;;0.70;0.20;;;22.20;99.90;;;;;;4959976;28;20871;-68
2022/07/04 07:33:02;;;;;;;0.70;0.10;;;22.30;99.90;;;;;;4959800;29;20470;-67
2022/07/04 07:35:30;;;;;;;0.70;0.10;;;22.30;99.90;;;;;;4953622;29;20454;-69
2022/07/04 07:37:59;;;;;;;0.70;0.10;;;22.30;99.90;;;;;;4958713;28;20475;-68
2022/07/04 07:40:26;;;;;;;0.70;0.10;;;22.30;99.90;;;;;;4959853;29;20461;-68
2022/07/04 07:42:55;;;;;;;0.70;0.20;;;22.30;99.90;;;;;;4959466;28;20502;-68
2022/07/04 07:45:24;;;;;;;0.70;0.10;;;22.40;99.90;;;;;;4959718;29;20455;-68
2022/07/04 07:47:52;;;;;;;0.70;0.10;;;22.40;99.90;;;;;;4959745;29;20481;-68
2022/07/04 07:50:20;;;;;;;0.70;0.10;;;22.50;99.90;;;;;;4960880;29;20956;-69
2022/07/04 07:52:48;;;;;;;0.70;0.10;;;22.50;99.90;;;;;;4959912;29;20450;-68
2022/07/04 07:55:16;;;;;;;0.70;0.10;;;22.50;99.90;;;;;;4943911;29;20977;-68
2022/07/04 07:57:44;;;;;;;0.70;0.20;;;22.60;99.90;;;;;;4940007;29;20506;-68
2022/07/04 08:00:16;;;;;;;0.70;0.17;;;22.60;99.90;;;;;;4940526;29;20494;-68
2022/07/04 08:06:00;;;;;;;0.70;0.17;;;22.80;99.90;;;;;;4916288;29;20474;-68
2022/07/04 08:08:28;;;;;;;0.70;0.10;;;22.90;99.90;;;;;;4955463;29;20471;-68
2022/07/04 08:10:55;;;;;;;0.70;0.10;;;22.90;99.90;;;;;;4951524;29;20533;-68
2022/07/04 08:13:23;;;;;;;0.70;0.10;;;23.00;99.90;;;;;;4956015;29;20443;-67
2022/07/04 08:15:51;;;;;;;0.70;0.10;;;22.90;99.90;;;;;;4956765;29;20546;-68
2022/07/04 08:18:22;;;;;;;0.70;0.13;;;22.90;99.90;;;;;;4956035;29;20467;-67
2022/07/04 08:20:50;;;;;;;0.70;0.10;;;22.90;99.90;;;;;;4956931;29;20447;-68
2022/07/04 08:23:38;;;;;;;0.70;0.10;;;22.90;99.90;;;;;;4956798;29;20525;-67
2022/07/04 08:26:18;;;;;;;0.70;0.20;;;22.90;99.90;;;;;;4954362;29;20833;-68
2022/07/04 08:28:47;;;;;;;0.70;0.10;;;23.00;99.90;;;;;;4951719;29;20463;-68
2022/07/04 08:31:15;;;;;;;0.70;0.20;;;23.10;99.90;;;;;;4955742;29;20551;-67
2022/07/04 08:34:04;;;;;;;2.03;0.93;;;23.10;99.90;;;;;;4955744;29;20444;-68
2022/07/04 08:36:32;;;;;;;0.70;0.20;;;23.10;99.90;;;;;;4950550;28;20453;-68
2022/07/04 08:38:59;;;;;;;0.70;0.10;;;23.40;99.90;;;;;;4954267;29;20467;-70
2022/07/04 08:41:29;;;;;;;0.70;0.20;;;23.40;99.90;;;;;;4951227;28;20459;-70
2022/07/04 08:43:58;;;;;;;0.70;0.20;;;23.50;99.90;;;;;;4953387;29;20479;-72
2022/07/04 08:46:27;;;;;;;0.70;0.20;;;23.60;99.90;;;;;;4948332;28;21456;-71
2022/07/04 08:48:59;;;;;;;0.70;0.20;;;23.70;99.90;;;;;;4954385;28;20820;-71
2022/07/04 08:51:38;;;;;;;0.70;0.10;;;23.70;99.90;;;;;;4954053;29;20443;-71
2022/07/04 08:58:25;;;;;;;0.70;0.10;;;23.70;99.90;;;;;;4954900;29;20447;-70
2022/07/04 08:59:48;;;;;;;0.70;0.10;;;23.50;99.90;;;;;;4954559;29;20915;-69
2022/07/04 09:02:19;;;;;;;0.70;0.20;;;23.50;99.90;;;;;;4953687;29;20451;-70
2022/07/04 09:04:47;;;;;;;0.70;0.10;;;23.60;99.90;;;;;;4954063;29;20930;-71
2022/07/04 09:07:17;;;;;;;0.70;0.10;;;23.50;99.90;;;;;;4945856;29;20459;-70
2022/07/04 09:09:45;;;;;;;0.70;0.10;;;23.50;99.90;;;;;;4964294;28;20442;-70
2022/07/04 09:12:19;;;;;;;0.70;0.10;;;23.80;99.90;;;;;;4957793;28;20935;-70
2022/07/04 09:14:47;;;;;;;0.70;0.20;;;23.80;99.90;;;;;;4948917;28;20506;-70
2022/07/04 09:17:15;;;;;;;0.70;0.10;;;24.00;99.90;;;;;;4953270;28;20479;-69
2022/07/04 09:19:43;;;;;;;0.70;0.10;;;24.00;99.90;;;;;;4957464;28;20477;-70
2022/07/04 09:22:11;;;;;;;0.70;0.10;;;24.10;99.90;;;;;;4947736;28;20451;-71
2022/07/04 09:24:47;;;;;;;0.70;0.10;;;24.10;99.90;;;;;;4954036;29;20486;-71
2022/07/04 09:27:30;;;;;;;0.70;0.20;;;24.10;99.90;;;;;;4953367;29;20462;-71
2022/07/04 09:29:59;;;;;;;0.70;0.20;;;24.10;99.90;;;;;;4953732;29;20453;-71
2022/07/04 09:32:38;;;;;;;0.70;0.10;;;24.10;99.90;;;;;;4953614;28;20462;-71
2022/07/04 09:35:07;;;;;;;0.70;0.10;;;24.00;99.90;;;;;;4963433;28;20486;-71
2022/07/04 09:37:37;;;;;;;0.70;0.20;;;24.00;99.90;;;;;;4960123;28;20473;-70
2022/07/04 09:40:09;;;;;;;0.70;0.20;;;24.00;99.90;;;;;;4954077;29;20538;-72
2022/07/04 09:42:39;;;;;;;0.70;0.10;;;24.00;99.90;;;;;;4954109;29;20447;-72
2022/07/04 09:45:10;;;;;;;0.80;0.30;;;24.10;99.90;;;;;;4953833;29;20569;-72
2022/07/04 09:47:40;;;;;;;0.70;0.10;;;24.10;99.90;;;;;;4953609;29;20477;-72
2022/07/04 09:50:10;;;;;;;0.80;0.50;;;24.10;99.90;;;;;;4943108;29;20448;-72
2022/07/04 09:52:46;;;;;;;0.90;0.40;;;24.00;99.90;;;;;;4955674;28;20463;-71
2022/07/04 09:55:23;;;;;;;0.87;0.57;;;23.60;99.90;;;;;;4953933;28;20966;-72
2022/07/04 09:57:51;;;;;;;0.70;0.13;;;23.60;99.90;;;;;;4954446;28;20471;-72
2022/07/04 10:00:21;;;;;;;0.70;0.10;;;23.70;99.90;;;;;;4952098;29;20443;-73
2022/07/04 10:02:50;;;;;;;0.70;0.10;;;23.90;99.90;;;;;;4952620;29;20501;-71
2022/07/04 10:05:22;;;;;;;0.70;0.20;;;23.90;99.90;;;;;;4948357;29;20480;-71
2022/07/04 10:07:50;;;;;;;0.70;0.10;;;24.10;99.90;;;;;;4951326;29;20997;-71
2022/07/04 10:10:26;;;;;;;0.70;0.10;;;24.20;99.90;;;;;;4952654;29;20533;-71
2022/07/04 10:12:55;;;;;;;0.70;0.10;;;24.30;99.90;;;;;;4954357;29;20463;-71
2022/07/04 10:15:23;;;;;;;0.70;0.10;;;24.30;99.90;;;;;;4950702;29;21019;-72
2022/07/04 10:17:52;;;;;;;0.70;0.10;;;24.40;99.90;;;;;;4947837;28;20477;-72
2022/07/04 10:20:20;;;;;;;0.70;0.20;;;24.50;99.90;;;;;;4962721;28;20965;-71
2022/07/04 10:22:48;;;;;;;1.20;0.40;;;24.50;99.90;;;;;;4956221;28;20961;-71
2022/07/04 10:25:16;;;;;;;0.70;0.10;;;24.60;99.90;;;;;;4953438;28;21026;-71
2022/07/04 10:27:48;;;;;;;1.43;0.50;;;24.70;99.90;;;;;;4953344;29;20830;-71
2022/07/04 10:30:18;;;;;;;0.70;0.20;;;24.50;99.90;;;;;;4953368;29;20461;-72
2022/07/04 10:32:48;;;;;;;1.20;0.67;;;24.50;99.90;;;;;;4953896;29;20447;-71
2022/07/04 10:35:16;;;;;;;0.70;0.10;;;24.50;99.90;;;;;;4949884;28;20436;-72
2022/07/04 10:38:04;;;;;;;0.70;0.20;;;24.50;99.90;;;;;;4953491;29;20474;-71
2022/07/04 10:40:44;;;;;;;0.70;0.20;;;24.60;99.90;;;;;;4953815;29;20453;-72
2022/07/04 10:43:52;;;;;;;0.70;0.20;;;24.80;99.90;;;;;;4954293;29;20443;-72
2022/07/04 10:46:31;;;;;;;0.70;0.20;;;24.80;99.90;;;;;;4953273;29;20469;-74
2022/07/04 10:49:01;;;;;;;0.70;0.10;;;25.00;99.90;;;;;;4952455;29;20530;-73
2022/07/04 10:51:43;;;;;;;0.70;0.10;;;24.80;99.90;;;;;;4953652;29;20943;-73
2022/07/04 10:54:14;;;;;;;0.70;0.10;;;24.90;99.90;;;;;;4956309;28;20443;-74
2022/07/04 10:56:44;;;;;;;0.70;0.10;;;25.10;99.90;;;;;;4953250;29;20451;-75
2022/07/04 10:59:18;;;;;;;0.70;0.10;;;25.30;99.90;;;;;;4953678;29;20558;-75
2022/07/04 11:01:48;;;;;;;0.70;0.10;;;25.30;99.90;;;;;;4953412;29;20444;-69
2022/07/04 11:04:51;;;;;;;0.70;0.10;;;25.50;99.90;;;;;;4948559;29;20471;-72
2022/07/04 11:07:20;;;;;;;0.70;0.10;;;25.60;99.90;;;;;;4952841;29;20470;-72
2022/07/04 11:10:25;;;;;;;0.70;0.10;;;25.60;99.90;;;;;;4953441;29;20832;-73
2022/07/04 11:13:17;;;;;;;0.70;0.20;;;25.70;99.90;;;;;;4952963;29;20447;-73
2022/07/04 11:16:07;;;;;;;0.70;0.17;;;25.80;99.90;;;;;;4953392;28;20999;-77
2022/07/04 11:18:43;;;;;;;0.70;0.10;;;25.80;99.90;;;;;;4953226;29;21048;-72
2022/07/04 11:21:21;;;;;;;0.70;0.10;;;25.80;99.90;;;;;;4947016;28;20462;-72
2022/07/04 11:23:54;;;;;;;0.70;0.10;;;25.80;99.90;;;;;;4953269;29;20583;-71
2022/07/04 11:26:31;;;;;;;0.70;0.10;;;;;;;;;;4953687;29;20450;-70
2022/07/04 11:29:03;;;;;;;0.70;0.10;;;26.00;99.90;;;;;;4952662;29;20977;-71
2022/07/04 11:31:40;;;;;;;1.00;0.40;;;26.00;99.90;;;;;;4953718;29;20458;-73
2022/07/04 11:34:08;;;;;;;0.70;0.10;;;25.70;99.90;;;;;;4950090;29;20447;-70
2022/07/04 11:36:36;;;;;;;0.70;0.20;;;25.70;99.90;;;;;;4947572;28;20546;-70
2022/07/04 11:39:06;;;;;;;0.70;0.20;;;25.70;99.90;;;;;;4955888;29;20467;-71
2022/07/04 11:47:12;;;;;;;0.70;0.20;;;26.00;99.90;;;;;;4955752;29;20466;-71
2022/07/04 11:49:46;;;;;;;0.70;0.10;;;26.10;99.90;;;;;;4955955;29;20448;-70
2022/07/04 11:52:16;;;;;;;0.70;0.20;;;26.20;99.90;;;;;;4955716;29;20447;-71
2022/07/04 11:55:03;;;;;;;0.70;0.10;;;26.20;99.90;;;;;;4956058;29;20447;-71
2022/07/04 11:57:35;;;;;;;0.70;0.27;;;26.40;99.90;;;;;;4954876;29;20473;-71
2022/07/04 12:00:06;;;;;;;0.70;0.17;;;26.50;99.90;;;;;;4955582;29;20454;-71
2022/07/04 12:02:39;;;;;;;0.70;0.20;;;26.50;99.90;;;;;;4949912;29;20507;-70
2022/07/04 12:05:09;;;;;;;0.70;0.10;;;26.60;99.90;;;;;;4955646;29;20478;-70
2022/07/04 12:07:38;;;;;;;0.70;0.20;;;26.60;99.90;;;;;;4955289;29;20561;-70
2022/07/04 12:10:10;;;;;;;0.70;0.20;;;26.60;99.90;;;;;;4954580;28;20962;-71
2022/07/04 12:12:52;;;;;;;0.70;0.20;;;26.60;99.90;;;;;;4956353;29;20534;-72
2022/07/04 12:15:21;;;;;;;0.70;0.10;;;26.60;99.90;;;;;;4956251;29;20446;-70
2022/07/04 12:17:54;;;;;;;0.70;0.10;;;26.70;99.90;;;;;;4955718;29;20463;-71
2022/07/04 12:20:23;;;;;;;0.70;0.20;;;26.70;99.90;;;;;;4956041;29;20439;-70
2022/07/04 12:22:53;;;;;;;0.70;0.10;;;26.70;99.90;;;;;;4952799;28;20467;-70
2022/07/04 12:25:31;;;;;;;0.70;0.20;;;26.70;99.90;;;;;;4953875;29;20471;-69
2022/07/04 12:28:01;;;;;;;0.80;0.30;;;26.70;99.90;;;;;;4955562;29;20467;-70
2022/07/04 12:30:32;;;;;;;0.70;0.10;;;26.50;99.90;;;;;;4955612;29;20505;-70
2022/07/04 12:33:03;;;;;;;0.70;0.20;;;26.50;99.90;;;;;;4952387;29;20555;-71
2022/07/04 12:35:39;;;;;;;0.70;0.20;;;26.50;99.90;;;;;;4955295;29;20439;-72
2022/07/04 12:38:08;;;;;;;0.70;0.20;;;24.60;99.90;;;;;;4955397;29;20470;-70
2022/07/04 12:40:38;;;;;;;0.70;0.10;;;26.60;99.90;;;;;;4955601;29;20483;-71
2022/07/04 12:43:10;;;;;;;0.70;0.20;;;26.70;99.90;;;;;;4952723;29;20494;-69
2022/07/04 12:45:48;;;;;;;0.70;0.10;;;26.80;99.90;;;;;;4938994;28;20495;-69
2022/07/04 12:48:19;;;;;;;0.70;0.20;;;26.60;99.90;;;;;;4954502;28;20474;-69
2022/07/04 12:50:48;;;;;;;0.70;0.20;;;26.70;99.90;;;;;;4952811;28;20830;-71
2022/07/04 12:53:17;;;;;;;0.70;0.13;;;26.60;99.90;;;;;;4954762;29;20451;-72
2022/07/04 12:55:47;;;;;;;0.70;0.20;;;26.70;99.90;;;;;;4954448;29;20447;-71
2022/07/04 12:58:15;;;;;;;0.70;0.10;;;26.80;99.90;;;;;;4951605;28;20478;-70
2022/07/04 13:00:43;;;;;;;0.70;0.20;;;26.90;99.90;;;;;;4953708;28;20995;-71
2022/07/04 13:03:12;;;;;;;0.70;0.10;;;27.10;99.90;;;;;;4954503;28;20483;-71
2022/07/04 13:05:42;;;;;;;0.70;0.20;;;27.20;99.90;;;;;;4954743;29;20483;-72
2022/07/04 13:08:11;;;;;;;0.70;0.10;;;27.20;99.90;;;;;;4954084;29;20481;-69
2022/07/04 13:10:39;;;;;;;0.70;0.10;;;27.20;99.90;;;;;;4954652;29;20449;-71
2022/07/04 13:13:07;;;;;;;0.70;0.10;;;27.00;99.90;;;;;;4954614;29;20451;-70
2022/07/04 13:15:35;;;;;;;0.70;0.17;;;27.20;99.90;;;;;;4948993;29;20542;-71
2022/07/04 13:18:03;;;;;;;0.70;0.10;;;27.20;99.90;;;;;;4949599;29;20520;-70
2022/07/04 13:20:31;;;;;;;0.70;0.17;;;27.20;99.90;;;;;;4954619;29;20605;-70
2022/07/04 13:23:01;;;;;;;0.70;0.10;;;27.30;99.90;;;;;;4950135;29;20450;-70
2022/07/04 13:25:29;;;;;;;0.70;0.20;;;27.40;99.90;;;;;;4953339;29;20475;-71
2022/07/04 13:27:56;;;;;;;0.70;0.20;;;27.40;99.90;;;;;;4953541;29;20966;-71